Schneifelwetter: Wetterstation Hallschlag, 537 m . NN
Wetterdaten: Donnerstag, 15.11.2012
Datum Zeit Temp. A. Feuchte A. Luftdruck Regen Wind Richtung Richtung Sonnenschein T Regen Taupunkt Windchill
15.11.2012 00:01 1,4 C 97 % 1021 hPa 0,0 l/m 12,0 km/h (2 Bft) S-SO22.5 165 0 min 0 min 1,0 C -3,4 C
15.11.2012 00:16 1,4 C 97 % 1022 hPa 0,0 l/m 6,1 km/h (2 Bft) S22.5 180 0 min 0 min 1,0 C 1,4 C
15.11.2012 00:31 1,3 C 97 % 1022 hPa 0,0 l/m 9,4 km/h (2 Bft) S-SO22.5 160 0 min 0 min 0,9 C -1,5 C
15.11.2012 00:46 1,4 C 97 % 1022 hPa 0,0 l/m 6,5 km/h (2 Bft) S22.5 170 0 min 0 min 1,0 C 1,3 C
15.11.2012 01:01 1,4 C 97 % 1022 hPa 0,0 l/m 0,3 km/h (0 Bft) SW 235 0 min 0 min 1,0 C 1,4 C
15.11.2012 01:16 1,3 C 97 % 1021 hPa 0,0 l/m 6,8 km/h (2 Bft) S-SO 160 0 min 0 min 0,9 C 0,9 C
15.11.2012 01:31 1,2 C 96 % 1021 hPa 0,0 l/m 6,8 km/h (2 Bft) S-SO 160 0 min 0 min 0,6 C 0,8 C
15.11.2012 01:45 1,2 C 96 % 1021 hPa 0,0 l/m 7,9 km/h (2 Bft) S-SO22.5 150 0 min 0 min 0,6 C -0,3 C
15.11.2012 02:00 1,2 C 96 % 1021 hPa 0,0 l/m 7,2 km/h (2 Bft) SO22.5 140 0 min 0 min 0,6 C 0,4 C
15.11.2012 02:15 1,2 C 96 % 1021 hPa 0,0 l/m 5,6 km/h (1 Bft) S-SO 150 0 min 0 min 0,6 C 1,2 C
15.11.2012 02:30 1,2 C 97 % 1021 hPa 0,0 l/m 6,6 km/h (2 Bft) S-SO22.5 155 0 min 0 min 0,8 C 1,0 C
15.11.2012 02:45 1,1 C 97 % 1021 hPa 0,0 l/m 6,3 km/h (2 Bft) SO22.5 140 0 min 0 min 0,7 C 1,1 C
15.11.2012 03:00 1,1 C 97 % 1021 hPa 0,0 l/m 9,2 km/h (2 Bft) SO 130 0 min 0 min 0,7 C -1,6 C
15.11.2012 03:15 1,0 C 97 % 1021 hPa 0,0 l/m 6,3 km/h (2 Bft) S22.5 190 0 min 0 min 0,6 C 1,0 C
15.11.2012 03:30 1,1 C 97 % 1021 hPa 0,0 l/m 0,0 km/h (0 Bft) SW 215 0 min 0 min 0,7 C 1,1 C
15.11.2012 03:45 1,1 C 97 % 1021 hPa 0,0 l/m 5,8 km/h (2 Bft) SO45 145 0 min 0 min 0,7 C 1,1 C
15.11.2012 04:00 0,9 C 97 % 1020 hPa 0,0 l/m 5,4 km/h (1 Bft) SO 145 0 min 0 min 0,5 C 0,9 C
15.11.2012 04:15 1,0 C 97 % 1020 hPa 0,0 l/m 8,8 km/h (2 Bft) SO22.5 135 0 min 0 min 0,6 C -1,3 C
15.11.2012 04:30 0,8 C 97 % 1020 hPa 0,0 l/m 5,9 km/h (2 Bft) S-SO 155 0 min 0 min 0,4 C 0,8 C
15.11.2012 04:45 0,8 C 97 % 1020 hPa 0,0 l/m 9,0 km/h (2 Bft) SO45 130 0 min 0 min 0,4 C -1,7 C
15.11.2012 05:00 0,8 C 97 % 1020 hPa 0,0 l/m 4,6 km/h (1 Bft) SO 135 0 min 0 min 0,4 C 0,8 C
15.11.2012 05:15 0,9 C 97 % 1020 hPa 0,0 l/m 0,4 km/h (0 Bft) O-SO 105 0 min 0 min 0,5 C 0,9 C
15.11.2012 05:30 0,9 C 97 % 1020 hPa 0,0 l/m 3,1 km/h (1 Bft) O-SO 105 0 min 0 min 0,5 C 0,9 C
15.11.2012 05:45 0,9 C 97 % 1020 hPa 0,0 l/m 0,0 km/h (0 Bft) O-SO 105 0 min 0 min 0,5 C 0,9 C
15.11.2012 06:00 0,8 C 97 % 1020 hPa 0,0 l/m 7,3 km/h (2 Bft) SO22.5 140 0 min 0 min 0,4 C -0,1 C
15.11.2012 06:15 0,7 C 97 % 1020 hPa 0,0 l/m 4,6 km/h (1 Bft) S-SO 150 0 min 0 min 0,3 C 0,7 C
15.11.2012 06:30 0,7 C 97 % 1020 hPa 0,0 l/m 2,3 km/h (1 Bft) SO 140 0 min 0 min 0,3 C 0,7 C
15.11.2012 06:45 0,7 C 97 % 1020 hPa 0,0 l/m 5,7 km/h (1 Bft) S-SW22.5 195 0 min 0 min 0,3 C 0,7 C
15.11.2012 07:00 0,7 C 97 % 1020 hPa 0,0 l/m 6,0 km/h (2 Bft) S-SW 200 0 min 0 min 0,3 C 0,7 C
15.11.2012 07:15 0,6 C 97 % 1020 hPa 0,0 l/m 5,6 km/h (1 Bft) W 260 0 min 0 min 0,2 C 0,6 C
15.11.2012 07:30 0,6 C 97 % 1020 hPa 0,0 l/m 4,7 km/h (1 Bft) SO 135 0 min 0 min 0,2 C 0,6 C
15.11.2012 07:45 0,5 C 97 % 1020 hPa 0,0 l/m 5,4 km/h (1 Bft) S-SW67.5 205 0 min 0 min 0,1 C 0,5 C
15.11.2012 08:00 0,6 C 97 % 1020 hPa 0,0 l/m 0,8 km/h (0 Bft) SW22.5 215 0 min 0 min 0,2 C 0,6 C
15.11.2012 08:15 0,5 C 97 % 1020 hPa 0,0 l/m 6,1 km/h (2 Bft) S-SO22.5 160 0 min 0 min 0,1 C 0,5 C
15.11.2012 08:30 0,5 C 97 % 1020 hPa 0,0 l/m 0,7 km/h (0 Bft) S-SO 165 0 min 0 min 0,1 C 0,5 C
15.11.2012 08:45 0,6 C 98 % 1021 hPa 0,0 l/m 4,6 km/h (1 Bft) O-SO 115 0 min 0 min 0,3 C 0,6 C
15.11.2012 09:00 0,7 C 98 % 1021 hPa 0,0 l/m 4,3 km/h (1 Bft) S 170 0 min 0 min 0,4 C 0,7 C
15.11.2012 09:16 0,7 C 97 % 1021 hPa 0,0 l/m 6,3 km/h (2 Bft) S-SO 165 0 min 0 min 0,3 C 0,7 C
15.11.2012 09:30 0,9 C 97 % 1021 hPa 0,0 l/m 7,4 km/h (2 Bft) SO22.5 135 0 min 0 min 0,5 C -0,1 C
15.11.2012 09:45 1,1 C 98 % 1020 hPa 0,0 l/m 6,3 km/h (2 Bft) S-SO22.5 150 0 min 0 min 0,8 C 1,1 C
15.11.2012 10:00 1,2 C 97 % 1020 hPa 0,0 l/m 10,8 km/h (2 Bft) S-SO22.5 160 0 min 0 min 0,8 C -2,7 C
15.11.2012 10:15 1,5 C 97 % 1020 hPa 0,0 l/m 6,1 km/h (2 Bft) O-SO22.5 105 0 min 0 min 1,1 C 1,5 C
15.11.2012 10:30 1,6 C 97 % 1020 hPa 0,0 l/m 7,6 km/h (2 Bft) SO22.5 145 0 min 0 min 1,2 C 0,4 C
15.11.2012 10:46 1,6 C 97 % 1020 hPa 0,0 l/m 10,1 km/h (2 Bft) S-SO22.5 155 0 min 0 min 1,2 C -1,8 C
15.11.2012 11:00 1,8 C 97 % 1020 hPa 0,0 l/m 7,8 km/h (2 Bft) SO45 130 0 min 0 min 1,4 C 0,4 C
15.11.2012 11:15 1,9 C 98 % 1020 hPa 0,0 l/m 6,9 km/h (2 Bft) SO22.5 130 0 min 0 min 1,6 C 1,4 C
15.11.2012 11:30 2,0 C 97 % 1020 hPa 0,0 l/m 5,4 km/h (1 Bft) O22.5 85 0 min 0 min 1,6 C 2,0 C
15.11.2012 11:45 2,3 C 97 % 1020 hPa 0,0 l/m 1,0 km/h (0 Bft) SO22.5 140 0 min 0 min 1,9 C 2,3 C
15.11.2012 12:00 2,3 C 97 % 1020 hPa 0,0 l/m 2,7 km/h (1 Bft) S-SO 150 0 min 0 min 1,9 C 2,3 C
15.11.2012 12:16 2,3 C 96 % 1020 hPa 0,0 l/m 0,0 km/h (0 Bft) S-SO 155 0 min 0 min 1,7 C 2,3 C
15.11.2012 12:30 2,3 C 96 % 1020 hPa 0,0 l/m 4,5 km/h (1 Bft) S-SO 155 0 min 0 min 1,7 C 2,3 C
15.11.2012 12:45 2,5 C 96 % 1019 hPa 0,0 l/m 6,5 km/h (2 Bft) S-SO22.5 155 0 min 0 min 1,9 C 2,4 C
15.11.2012 13:00 2,7 C 96 % 1019 hPa 0,0 l/m 8,6 km/h (2 Bft) O22.5 95 0 min 0 min 2,1 C 0,7 C
15.11.2012 13:15 2,7 C 96 % 1019 hPa 0,0 l/m 6,7 km/h (2 Bft) O-SO22.5 120 0 min 0 min 2,1 C 2,4 C
15.11.2012 13:30 2,7 C 95 % 1019 hPa 0,0 l/m 5,0 km/h (1 Bft) S-SO22.5 150 0 min 0 min 2,0 C 2,7 C
15.11.2012 13:46 2,6 C 95 % 1019 hPa 0,0 l/m 7,8 km/h (2 Bft) S 180 0 min 0 min 1,9 C 1,3 C
15.11.2012 14:00 2,5 C 95 % 1019 hPa 0,0 l/m 9,2 km/h (2 Bft) S-SO22.5 155 0 min 0 min 1,8 C -0,1 C
15.11.2012 14:15 2,7 C 95 % 1019 hPa 0,0 l/m 6,0 km/h (2 Bft) S22.5 185 0 min 0 min 2,0 C 2,7 C
15.11.2012 14:30 2,6 C 95 % 1019 hPa 0,0 l/m 10,9 km/h (2 Bft) S-SW22.5 205 0 min 0 min 1,9 C -1,2 C
15.11.2012 14:45 2,4 C 94 % 1019 hPa 0,0 l/m 7,6 km/h (2 Bft) S-SO22.5 155 0 min 0 min 1,5 C 1,2 C
15.11.2012 15:00 2,3 C 95 % 1018 hPa 0,0 l/m 6,5 km/h (2 Bft) SO22.5 130 0 min 0 min 1,6 C 2,2 C
15.11.2012 15:16 2,3 C 95 % 1018 hPa 0,0 l/m 1,2 km/h (1 Bft) SO22.5 140 0 min 0 min 1,6 C 2,3 C
15.11.2012 15:30 2,3 C 94 % 1019 hPa 0,0 l/m 8,0 km/h (2 Bft) S-SO67.5 150 0 min 0 min 1,4 C 0,8 C
15.11.2012 15:45 2,0 C 94 % 1019 hPa 0,0 l/m 8,5 km/h (2 Bft) SO45 135 0 min 0 min 1,1 C 0,0 C
15.11.2012 16:00 1,9 C 95 % 1018 hPa 0,0 l/m 6,9 km/h (2 Bft) SO22.5 140 0 min 0 min 1,2 C 1,4 C
15.11.2012 16:15 1,8 C 95 % 1018 hPa 0,0 l/m 6,7 km/h (2 Bft) SO 135 0 min 0 min 1,1 C 1,5 C
15.11.2012 16:31 1,7 C 95 % 1018 hPa 0,0 l/m 4,4 km/h (1 Bft) O-SO22.5 110 0 min 0 min 1,0 C 1,7 C
15.11.2012 16:46 1,5 C 95 % 1018 hPa 0,0 l/m 5,2 km/h (1 Bft) SO45 130 0 min 0 min 0,8 C 1,5 C
15.11.2012 17:00 1,4 C 95 % 1018 hPa 0,0 l/m 0,7 km/h (0 Bft) SO 145 0 min 0 min 0,7 C 1,4 C
15.11.2012 17:15 1,3 C 95 % 1018 hPa 0,0 l/m 8,1 km/h (2 Bft) S-SO22.5 160 0 min 0 min 0,6 C -0,4 C
15.11.2012 17:30 1,1 C 95 % 1018 hPa 0,0 l/m 6,4 km/h (2 Bft) S-SO 160 0 min 0 min 0,4 C 1,1 C
15.11.2012 17:45 1,0 C 95 % 1018 hPa 0,0 l/m 8,9 km/h (2 Bft) S-SO22.5 150 0 min 0 min 0,3 C -1,4 C
15.11.2012 18:01 0,9 C 96 % 1019 hPa 0,0 l/m 7,6 km/h (2 Bft) S-SO22.5 165 0 min 0 min 0,3 C -0,3 C
15.11.2012 18:16 0,8 C 96 % 1018 hPa 0,0 l/m 8,1 km/h (2 Bft) SO22.5 130 0 min 0 min 0,2 C -0,9 C
15.11.2012 18:30 0,7 C 95 % 1018 hPa 0,0 l/m 8,3 km/h (2 Bft) SO22.5 140 0 min 0 min -0,0 C -1,2 C
15.11.2012 18:45 0,6 C 95 % 1018 hPa 0,0 l/m 9,9 km/h (2 Bft) SO22.5 145 0 min 0 min -0,1 C -2,7 C
15.11.2012 19:00 0,5 C 95 % 1018 hPa 0,0 l/m 9,1 km/h (2 Bft) S-SO22.5 155 0 min 0 min -0,2 C -2,1 C
15.11.2012 19:15 0,5 C 95 % 1018 hPa 0,0 l/m 8,9 km/h (2 Bft) S-SO45 155 0 min 0 min -0,2 C -2,0 C
15.11.2012 19:31 0,5 C 96 % 1018 hPa 0,0 l/m 4,9 km/h (1 Bft) S-SO45 165 0 min 0 min -0,1 C 0,5 C
15.11.2012 19:46 0,6 C 96 % 1018 hPa 0,0 l/m 9,2 km/h (2 Bft) W-SW45 240 0 min 0 min 0,0 C -2,1 C
15.11.2012 20:00 0,5 C 96 % 1018 hPa 0,0 l/m 10,0 km/h (2 Bft) S22.5 185 0 min 0 min -0,1 C -2,9 C
15.11.2012 20:15 0,4 C 96 % 1018 hPa 0,0 l/m 10,4 km/h (2 Bft) S-SW22.5 205 0 min 0 min -0,2 C -3,3 C
15.11.2012 20:30 0,4 C 96 % 1018 hPa 0,0 l/m 14,6 km/h (3 Bft) S-SW22.5 195 0 min 0 min -0,2 C -6,3 C
15.11.2012 20:45 0,3 C 96 % 1018 hPa 0,0 l/m 11,6 km/h (2 Bft) S-SW45 195 0 min 0 min -0,3 C -4,4 C
15.11.2012 21:01 0,3 C 96 % 1018 hPa 0,0 l/m 7,9 km/h (2 Bft) S-SO 155 0 min 0 min -0,3 C -1,2 C
15.11.2012 21:16 0,3 C 97 % 1018 hPa 0,0 l/m 9,2 km/h (2 Bft) S22.5 170 0 min 0 min -0,1 C -2,4 C
15.11.2012 21:30 0,3 C 97 % 1018 hPa 0,0 l/m 8,1 km/h (2 Bft) S-SW67.5 195 0 min 0 min -0,1 C -1,4 C
15.11.2012 21:45 0,3 C 97 % 1018 hPa 0,0 l/m 11,3 km/h (2 Bft) S-SW45 205 0 min 0 min -0,1 C -4,1 C
15.11.2012 22:00 0,3 C 97 % 1018 hPa 0,0 l/m 13,0 km/h (3 Bft) S-SW45 210 0 min 0 min -0,1 C -5,4 C
15.11.2012 22:15 0,3 C 97 % 1017 hPa 0,0 l/m 11,7 km/h (2 Bft) SW45 215 0 min 0 min -0,1 C -4,4 C
15.11.2012 22:31 0,3 C 97 % 1017 hPa 0,0 l/m 11,5 km/h (2 Bft) S-SO22.5 160 0 min 0 min -0,1 C -4,3 C
15.11.2012 22:45 0,3 C 97 % 1017 hPa 0,0 l/m 16,0 km/h (3 Bft) S22.5 175 0 min 0 min -0,1 C -7,2 C
15.11.2012 23:00 0,3 C 97 % 1017 hPa 0,0 l/m 8,5 km/h (2 Bft) S-SO22.5 160 0 min 0 min -0,1 C -1,8 C
15.11.2012 23:15 0,3 C 97 % 1017 hPa 0,0 l/m 5,2 km/h (1 Bft) S-SW45 210 0 min 0 min -0,1 C 0,3 C
15.11.2012 23:30 0,3 C 97 % 1018 hPa 0,0 l/m 11,7 km/h (2 Bft) W-SW45 240 0 min 0 min -0,1 C -4,4 C
15.11.2012 23:45 0,4 C 97 % 1018 hPa 0,0 l/m 8,3 km/h (2 Bft) S22.5 170 0 min 0 min -0,0 C -1,5 C
15.11.2012 23:55 0,3 C 97 % 1018 hPa 0,0 l/m 6,3 km/h (2 Bft) S22.5 170 0 min 0 min -0,1 C 0,3 C
_ Min-Zeit 20:45 14:45 22:15 - 03:30 - - - - 20:45 22:45
Minimum _ 0,3 C 94 % 1017 hPa - 0,0 km/h (0 Bft) - - - - -0,3 C -7,2 C
_ Max-Zeit 13:00 08:45 00:16 00:01 22:45 - - 00:01 00:01 13:00 13:30
Maximum _ 2,7 C 98 % 1022 hPa 0,0 l/m 16,0 km/h
S (3 Bft)
- - 0 min 0 min 2,1 C 2,7 C
Durchschnitt _ 1,2 C 96 % 1020 hPa #0,0 l/m 6,8 km/h (2 Bft) S-SO - #0 min. #0 min. 0,7 C -0,1 C